createdAt,value
2022-11-13T00:01:14.683Z,99.90
2022-11-13T00:03:42.031Z,99.90
2022-11-13T00:06:10.347Z,99.90
2022-11-13T00:08:37.401Z,99.90
2022-11-13T00:11:11.304Z,99.90
2022-11-13T00:13:38.465Z,99.90
2022-11-13T00:16:08.478Z,99.90
2022-11-13T00:18:36.543Z,99.90
2022-11-13T00:21:12.038Z,99.90
2022-11-13T00:23:38.942Z,99.90
2022-11-13T00:26:12.549Z,99.90
2022-11-13T00:28:39.681Z,99.90
2022-11-13T00:31:08.068Z,99.90
2022-11-13T00:36:26.475Z,99.90
2022-11-13T00:38:54.501Z,99.90
2022-11-13T00:41:21.679Z,99.90
2022-11-13T00:43:48.860Z,99.90
2022-11-13T00:46:16.272Z,99.90
2022-11-13T00:48:43.378Z,99.90
2022-11-13T00:51:10.625Z,99.90
2022-11-13T00:53:37.822Z,99.90
2022-11-13T00:56:05.318Z,99.90
2022-11-13T00:58:32.492Z,99.90
2022-11-13T01:01:12.284Z,99.90
2022-11-13T01:03:39.894Z,99.90
2022-11-13T01:06:15.526Z,99.90
2022-11-13T01:08:42.720Z,99.90
2022-11-13T01:11:15.447Z,99.90
2022-11-13T01:13:44.646Z,99.90
2022-11-13T01:16:13.539Z,99.90
2022-11-13T01:18:41.682Z,99.90
2022-11-13T01:21:20.851Z,99.90
2022-11-13T01:23:48.157Z,99.90
2022-11-13T01:26:18.606Z,99.90
2022-11-13T01:28:46.052Z,99.90
2022-11-13T01:31:19.712Z,99.90
2022-11-13T01:33:47.679Z,99.90
2022-11-13T01:36:27.763Z,99.90
2022-11-13T01:38:55.355Z,99.90
2022-11-13T01:41:25.826Z,99.90
2022-11-13T01:43:54.212Z,99.90
2022-11-13T01:46:42.650Z,99.90
2022-11-13T01:49:34.188Z,99.90
2022-11-13T01:52:04.714Z,99.90
2022-11-13T01:54:37.765Z,99.90
2022-11-13T01:57:05.633Z,99.90
2022-11-13T01:59:36.534Z,99.90
2022-11-13T02:02:03.811Z,99.90
2022-11-13T02:04:31.958Z,99.90
2022-11-13T02:07:06.475Z,99.90
2022-11-13T02:09:42.129Z,99.90
2022-11-13T02:12:12.767Z,99.90
2022-11-13T02:14:54.428Z,99.90
2022-11-13T02:17:28.205Z,99.90
2022-11-13T02:19:59.923Z,99.90
2022-11-13T02:22:35.453Z,99.90
2022-11-13T02:25:04.191Z,99.90
2022-11-13T02:27:36.367Z,99.90
2022-11-13T02:30:28.247Z,99.90
2022-11-13T02:32:56.626Z,99.90
2022-11-13T02:35:37.054Z,99.90
2022-11-13T02:38:06.092Z,99.90
2022-11-13T02:40:34.290Z,99.90
2022-11-13T02:43:01.493Z,99.90
2022-11-13T02:45:28.413Z,99.90
2022-11-13T02:47:55.458Z,99.90
2022-11-13T02:50:22.574Z,99.90
2022-11-13T02:52:49.600Z,99.90
2022-11-13T02:55:16.675Z,99.90
2022-11-13T02:57:43.651Z,99.90
2022-11-13T03:00:14.012Z,99.90
2022-11-13T03:02:41.760Z,99.90
2022-11-13T03:05:12.633Z,99.90
2022-11-13T03:07:41.241Z,99.90
2022-11-13T03:10:09.622Z,99.90
2022-11-13T03:12:37.742Z,99.90
2022-11-13T03:15:06.255Z,99.90
2022-11-13T03:17:33.347Z,99.90
2022-11-13T03:20:02.683Z,99.90
2022-11-13T03:22:29.562Z,99.90
2022-11-13T03:24:56.572Z,99.90
2022-11-13T03:27:23.668Z,99.90
2022-11-13T03:29:50.659Z,99.90
2022-11-13T03:32:17.593Z,99.90
2022-11-13T03:34:44.587Z,99.90
2022-11-13T03:37:11.650Z,99.90
2022-11-13T03:39:38.611Z,99.90
2022-11-13T03:42:05.602Z,99.90
2022-11-13T03:44:32.482Z,99.90
2022-11-13T03:47:00.886Z,99.90
2022-11-13T03:49:27.915Z,99.90
2022-11-13T03:51:54.983Z,99.90
2022-11-13T03:54:22.104Z,99.90
2022-11-13T03:56:49.082Z,99.90
2022-11-13T03:59:16.372Z,99.90
2022-11-13T04:01:43.299Z,99.90
2022-11-13T04:04:10.284Z,99.90
2022-11-13T04:06:37.551Z,99.90
2022-11-13T04:09:04.592Z,99.90
2022-11-13T04:11:31.865Z,99.90
2022-11-13T04:13:58.878Z,99.90
2022-11-13T04:16:25.956Z,99.90
2022-11-13T04:18:52.947Z,99.90
2022-11-13T04:21:19.869Z,99.90
2022-11-13T04:23:47.855Z,99.90
2022-11-13T04:26:14.960Z,99.90
2022-11-13T04:28:42.097Z,99.90
2022-11-13T04:31:09.032Z,99.90
2022-11-13T04:33:35.933Z,99.90
2022-11-13T04:36:03.018Z,99.90
2022-11-13T04:38:31.720Z,99.90
2022-11-13T04:41:17.640Z,99.90
2022-11-13T04:43:44.624Z,99.90
2022-11-13T04:46:11.605Z,99.90
2022-11-13T04:48:38.493Z,99.90
2022-11-13T04:51:06.010Z,99.90
2022-11-13T04:53:32.954Z,99.90
2022-11-13T04:55:59.885Z,99.90
2022-11-13T04:58:27.230Z,99.90
2022-11-13T05:00:54.449Z,99.90
2022-11-13T05:03:23.230Z,99.90
2022-11-13T05:05:52.833Z,99.90
2022-11-13T05:08:23.353Z,99.90
2022-11-13T05:10:50.244Z,99.90
2022-11-13T05:13:17.484Z,99.90
2022-11-13T05:15:44.467Z,99.90
2022-11-13T05:18:11.533Z,99.90
2022-11-13T05:20:38.492Z,99.90
2022-11-13T05:23:05.417Z,99.90
2022-11-13T05:25:32.689Z,99.90
2022-11-13T05:27:59.791Z,99.90
2022-11-13T05:30:27.017Z,99.90
2022-11-13T05:32:54.006Z,99.90
2022-11-13T05:35:20.962Z,99.90
2022-11-13T05:37:47.853Z,99.90
2022-11-13T05:40:14.805Z,99.90
2022-11-13T05:42:41.844Z,99.90
2022-11-13T05:45:09.591Z,99.90
2022-11-13T05:47:36.513Z,99.90
2022-11-13T05:50:03.975Z,99.90
2022-11-13T05:52:31.088Z,99.90
2022-11-13T05:54:58.086Z,99.90
2022-11-13T05:57:25.075Z,99.90
2022-11-13T05:59:51.981Z,99.90
2022-11-13T06:02:18.942Z,99.90
2022-11-13T06:04:46.104Z,99.90
2022-11-13T06:07:13.081Z,99.90
2022-11-13T06:09:40.509Z,99.90
2022-11-13T06:12:07.961Z,99.90
2022-11-13T06:14:35.127Z,99.90
2022-11-13T06:17:02.183Z,99.90
2022-11-13T06:19:29.269Z,99.90
2022-11-13T06:21:56.809Z,99.90
2022-11-13T06:24:23.887Z,99.90
2022-11-13T06:26:52.956Z,99.90
2022-11-13T06:29:20.007Z,99.90
2022-11-13T06:31:46.923Z,99.90
2022-11-13T06:34:13.856Z,99.90
2022-11-13T06:36:40.854Z,99.90
2022-11-13T06:39:09.713Z,99.90
2022-11-13T06:41:38.569Z,99.90
2022-11-13T06:44:05.553Z,99.90
2022-11-13T06:46:32.611Z,99.90
2022-11-13T06:48:59.928Z,99.90
2022-11-13T06:51:29.258Z,99.90
2022-11-13T06:53:57.046Z,99.90
2022-11-13T06:56:24.710Z,99.90
2022-11-13T06:58:52.018Z,99.90
2022-11-13T07:01:24.077Z,99.90
2022-11-13T07:03:51.334Z,99.90
2022-11-13T07:06:21.056Z,99.90
2022-11-13T07:08:48.573Z,99.90
2022-11-13T07:11:19.033Z,99.90
2022-11-13T07:13:46.120Z,99.90
2022-11-13T07:16:17.374Z,99.90
2022-11-13T07:18:49.212Z,99.90
2022-11-13T07:21:16.139Z,99.90
2022-11-13T07:23:43.766Z,99.90
2022-11-13T07:26:14.289Z,99.70
2022-11-13T07:28:41.366Z,70.10
2022-11-13T07:31:11.088Z,55.80
2022-11-13T07:33:38.173Z,39.30
2022-11-13T07:36:05.605Z,31.90
2022-11-13T07:38:32.486Z,33.10
2022-11-13T07:41:00.225Z,35.10
2022-11-13T07:43:27.613Z,48.10
2022-11-13T07:45:55.587Z,49.60
2022-11-13T07:48:23.075Z,45.50
2022-11-13T07:50:51.072Z,34.30
2022-11-13T07:53:21.510Z,40.90
2022-11-13T07:55:48.716Z,44.30
2022-11-13T07:58:15.708Z,40.90
2022-11-13T08:00:42.798Z,35.20
2022-11-13T08:03:13.787Z,30.90
2022-11-13T08:05:41.036Z,38.70
2022-11-13T08:08:12.095Z,41.50
2022-11-13T08:10:39.265Z,40.30
2022-11-13T08:13:08.779Z,43.10
2022-11-13T08:15:36.060Z,37.30
2022-11-13T08:18:04.683Z,29.20
2022-11-13T08:20:32.167Z,30.50
2022-11-13T08:23:00.733Z,29.20
2022-11-13T08:25:29.023Z,30.70
2022-11-13T08:27:56.287Z,26.40
2022-11-13T08:30:24.949Z,21.40
2022-11-13T08:32:51.939Z,20.00
2022-11-13T08:35:22.052Z,23.50
2022-11-13T08:37:51.028Z,27.50
2022-11-13T08:40:17.965Z,38.40
2022-11-13T08:42:45.172Z,14.20
2022-11-13T08:45:12.359Z,1.00
2022-11-13T08:47:39.293Z,1.00
2022-11-13T08:50:07.152Z,1.00
2022-11-13T08:52:34.153Z,1.00
2022-11-13T08:55:01.055Z,1.00
2022-11-13T08:57:28.003Z,1.00
2022-11-13T08:59:54.967Z,1.00
2022-11-13T09:02:21.886Z,1.00
2022-11-13T09:04:48.844Z,1.00
2022-11-13T09:07:16.224Z,1.00
2022-11-13T09:09:43.362Z,1.00
2022-11-13T09:12:10.600Z,1.00
2022-11-13T09:14:38.036Z,1.00
2022-11-13T09:17:05.081Z,1.00
2022-11-13T09:19:32.245Z,1.00
2022-11-13T09:21:59.254Z,1.00
2022-11-13T09:24:26.230Z,1.00
2022-11-13T09:26:53.179Z,1.00
2022-11-13T09:29:21.220Z,1.00
2022-11-13T09:32:01.358Z,1.00
2022-11-13T09:34:28.477Z,1.00
2022-11-13T09:36:55.578Z,1.00
2022-11-13T09:39:22.654Z,1.00
2022-11-13T09:42:18.372Z,1.00
2022-11-13T09:44:59.601Z,1.00
2022-11-13T09:47:33.927Z,1.00
2022-11-13T09:50:12.125Z,1.00
2022-11-13T09:52:42.791Z,1.00
2022-11-13T09:55:16.601Z,1.00
2022-11-13T09:58:04.995Z,1.00
2022-11-13T10:00:35.245Z,1.00
2022-11-13T10:06:41.853Z,1.00
2022-11-13T10:09:39.484Z,1.00
2022-11-13T10:12:08.643Z,1.00
2022-11-13T10:14:39.048Z,1.00
2022-11-13T10:17:33.712Z,1.00
2022-11-13T10:20:22.785Z,1.00
2022-11-13T10:22:53.933Z,1.00
2022-11-13T10:25:23.352Z,1.00
2022-11-13T10:28:11.375Z,1.00
2022-11-13T10:30:49.711Z,1.00
2022-11-13T10:33:21.957Z,1.00
2022-11-13T10:36:00.942Z,1.00
2022-11-13T10:39:05.196Z,1.00
2022-11-13T10:41:32.963Z,1.00
2022-11-13T10:44:02.172Z,1.00
2022-11-13T10:46:30.684Z,1.00
2022-11-13T10:48:58.739Z,1.00
2022-11-13T10:51:31.319Z,1.00
2022-11-13T10:53:59.704Z,1.00
2022-11-13T10:56:36.539Z,1.00
2022-11-13T10:59:19.123Z,1.00
2022-11-13T11:01:47.892Z,1.00
2022-11-13T11:04:27.658Z,1.00
2022-11-13T11:09:46.920Z,1.00
2022-11-13T11:12:30.604Z,1.00
2022-11-13T11:15:20.853Z,1.00
2022-11-13T11:18:00.675Z,1.00
2022-11-13T11:20:54.650Z,1.00
2022-11-13T11:24:04.676Z,1.00
2022-11-13T11:26:40.219Z,1.00
2022-11-13T11:29:41.639Z,1.00
2022-11-13T11:32:40.882Z,1.00
2022-11-13T11:35:24.815Z,1.00
2022-11-13T11:38:07.559Z,1.00
2022-11-13T11:40:42.996Z,1.00
2022-11-13T11:43:35.594Z,1.00
2022-11-13T11:46:02.898Z,1.00
2022-11-13T11:48:34.267Z,1.00
2022-11-13T11:51:42.462Z,1.00
2022-11-13T11:54:43.925Z,1.00
2022-11-13T11:57:57.386Z,1.00
2022-11-13T12:00:25.535Z,1.00
2022-11-13T12:03:04.538Z,1.00
2022-11-13T12:06:04.453Z,1.00
2022-11-13T12:09:23.012Z,1.00
2022-11-13T12:12:33.788Z,1.00
2022-11-13T12:15:33.195Z,1.00
2022-11-13T12:18:40.080Z,1.00
2022-11-13T12:21:24.310Z,1.00
2022-11-13T12:24:29.826Z,1.00
2022-11-13T12:27:41.355Z,1.00
2022-11-13T12:30:15.817Z,1.00
2022-11-13T12:33:18.289Z,1.00
2022-11-13T12:35:52.148Z,1.00
2022-11-13T12:38:46.123Z,1.00
2022-11-13T12:41:36.570Z,1.00
2022-11-13T12:44:30.923Z,1.00
2022-11-13T12:47:01.604Z,1.00
2022-11-13T12:49:37.280Z,1.00
2022-11-13T12:52:17.578Z,1.00
2022-11-13T12:54:44.573Z,1.00
2022-11-13T12:57:30.867Z,1.00
2022-11-13T13:00:00.768Z,1.00
2022-11-13T13:02:48.375Z,1.00
2022-11-13T13:05:25.228Z,1.00
2022-11-13T13:08:17.474Z,1.00
2022-11-13T13:11:26.122Z,1.00
2022-11-13T13:14:31.819Z,1.00
2022-11-13T13:17:27.776Z,1.00
2022-11-13T13:20:02.437Z,1.00
2022-11-13T13:22:34.347Z,1.00
2022-11-13T13:25:29.456Z,1.00
2022-11-13T13:28:01.880Z,1.00
2022-11-13T13:30:33.487Z,1.00
2022-11-13T13:33:25.585Z,1.00
2022-11-13T13:36:03.691Z,1.00
2022-11-13T13:38:46.767Z,1.00
2022-11-13T13:41:55.134Z,1.00
2022-11-13T13:45:09.749Z,1.00
2022-11-13T13:47:40.683Z,1.00
2022-11-13T13:50:13.266Z,1.00
2022-11-13T13:52:40.440Z,1.00
2022-11-13T13:55:16.686Z,1.00
2022-11-13T13:57:45.027Z,1.00
2022-11-13T14:00:13.866Z,1.00
2022-11-13T14:02:48.758Z,1.00
2022-11-13T14:05:31.049Z,1.00
2022-11-13T14:07:58.367Z,1.00
2022-11-13T14:10:29.571Z,1.00
2022-11-13T14:12:56.927Z,1.00
2022-11-13T14:15:25.831Z,1.00
2022-11-13T14:17:53.012Z,1.00
2022-11-13T14:20:21.120Z,1.00
2022-11-13T14:22:56.269Z,1.00
2022-11-13T14:25:27.318Z,1.00
2022-11-13T14:27:54.349Z,1.00
2022-11-13T14:30:28.756Z,1.00
2022-11-13T14:32:55.956Z,1.00
2022-11-13T14:35:27.467Z,1.00
2022-11-13T14:37:55.803Z,1.00
2022-11-13T14:40:32.054Z,1.00
2022-11-13T14:43:10.571Z,1.00
2022-11-13T14:45:37.487Z,1.00
2022-11-13T14:48:26.135Z,1.00
2022-11-13T14:50:57.435Z,1.00
2022-11-13T14:53:36.193Z,1.00
2022-11-13T14:56:11.962Z,1.00
2022-11-13T14:58:47.466Z,1.00
2022-11-13T15:01:20.938Z,1.00
2022-11-13T15:03:55.195Z,1.00
2022-11-13T15:06:25.031Z,1.00
2022-11-13T15:08:56.135Z,1.00
2022-11-13T15:11:26.796Z,1.00
2022-11-13T15:13:54.048Z,1.00
2022-11-13T15:16:27.595Z,1.00
2022-11-13T15:19:04.525Z,1.00
2022-11-13T15:21:32.089Z,1.00
2022-11-13T15:24:01.152Z,1.00
2022-11-13T15:26:28.276Z,1.00
2022-11-13T15:28:55.333Z,1.00
2022-11-13T15:31:36.989Z,1.00
2022-11-13T15:34:04.657Z,1.00
2022-11-13T15:36:32.107Z,1.00
2022-11-13T15:39:01.332Z,1.00
2022-11-13T15:41:34.166Z,1.00
2022-11-13T15:44:04.908Z,1.00
2022-11-13T15:46:31.908Z,1.00
2022-11-13T15:48:59.017Z,1.00
2022-11-13T15:51:35.034Z,1.00
2022-11-13T15:54:07.276Z,1.00
2022-11-13T15:56:36.261Z,1.00
2022-11-13T15:59:03.416Z,1.00
2022-11-13T16:01:30.638Z,1.00
2022-11-13T16:04:02.086Z,1.00
2022-11-13T16:06:30.461Z,1.00
2022-11-13T16:08:57.395Z,1.00
2022-11-13T16:11:24.347Z,1.00
2022-11-13T16:13:51.293Z,1.00
2022-11-13T16:16:31.443Z,1.00
2022-11-13T16:19:00.465Z,1.00
2022-11-13T16:21:28.257Z,1.00
2022-11-13T16:23:55.325Z,1.00
2022-11-13T16:26:25.468Z,1.00
2022-11-13T16:29:12.744Z,1.00
2022-11-13T16:31:41.778Z,1.00
2022-11-13T16:34:08.835Z,1.00
2022-11-13T16:36:35.868Z,1.00
2022-11-13T16:39:03.033Z,1.00
2022-11-13T16:41:31.745Z,1.00
2022-11-13T16:43:58.870Z,1.00
2022-11-13T16:46:37.423Z,1.00
2022-11-13T16:49:04.533Z,1.00
2022-11-13T16:51:31.669Z,1.00
2022-11-13T16:53:58.702Z,1.00
2022-11-13T16:56:30.840Z,1.00
2022-11-13T16:58:59.093Z,1.00
2022-11-13T17:01:26.759Z,1.00
2022-11-13T17:03:53.802Z,1.00
2022-11-13T17:06:32.798Z,1.00
2022-11-13T17:09:01.670Z,1.00
2022-11-13T17:11:30.770Z,1.00
2022-11-13T17:13:59.866Z,1.00
2022-11-13T17:16:28.605Z,1.00
2022-11-13T17:18:56.573Z,1.00
2022-11-13T17:21:28.636Z,1.00
2022-11-13T17:23:56.963Z,1.00
2022-11-13T17:26:25.019Z,1.00
2022-11-13T17:28:52.643Z,1.00
2022-11-13T17:31:20.589Z,1.00
2022-11-13T17:33:48.349Z,1.00
2022-11-13T17:36:15.331Z,1.00
2022-11-13T17:38:42.385Z,1.00
2022-11-13T17:41:11.417Z,1.00
2022-11-13T17:43:39.761Z,1.00
2022-11-13T17:46:12.579Z,1.00
2022-11-13T17:48:39.927Z,1.00
2022-11-13T17:51:08.566Z,1.00
2022-11-13T17:53:35.718Z,1.00
2022-11-13T17:56:07.240Z,1.00
2022-11-13T17:58:42.763Z,1.00
2022-11-13T18:01:18.018Z,1.00
2022-11-13T18:03:45.229Z,1.00
2022-11-13T18:06:19.632Z,1.00
2022-11-13T18:08:47.022Z,1.00
2022-11-13T18:11:16.963Z,1.00
2022-11-13T18:13:44.693Z,1.00
2022-11-13T18:16:19.008Z,1.00
2022-11-13T18:18:53.089Z,1.00
2022-11-13T18:21:26.152Z,1.00
2022-11-13T18:24:01.807Z,1.00
2022-11-13T18:26:30.949Z,1.00
2022-11-13T18:28:58.893Z,1.00
2022-11-13T18:31:26.751Z,1.00
2022-11-13T18:33:53.853Z,1.00
2022-11-13T18:36:20.788Z,1.00
2022-11-13T18:38:47.899Z,1.00
2022-11-13T18:41:19.756Z,1.00
2022-11-13T18:43:48.888Z,1.00
2022-11-13T18:46:18.449Z,1.00
2022-11-13T18:48:46.749Z,1.00
2022-11-13T18:51:23.080Z,1.00
2022-11-13T18:53:51.755Z,1.00
2022-11-13T18:56:21.551Z,1.00
2022-11-13T18:58:50.184Z,1.00
2022-11-13T19:01:24.994Z,1.00
2022-11-13T19:04:22.259Z,1.00
2022-11-13T19:06:40.937Z,1.00
2022-11-13T19:09:17.544Z,1.00
2022-11-13T19:11:45.160Z,1.00
2022-11-13T19:14:16.921Z,1.00
2022-11-13T19:16:44.154Z,1.00
2022-11-13T19:19:17.624Z,1.00
2022-11-13T19:21:45.436Z,1.00
2022-11-13T19:24:14.921Z,1.00
2022-11-13T19:26:43.385Z,1.00
2022-11-13T19:29:10.676Z,1.00
2022-11-13T19:31:37.787Z,1.00
2022-11-13T19:34:07.679Z,1.00
2022-11-13T19:36:35.626Z,1.00
2022-11-13T19:39:05.701Z,1.00
2022-11-13T19:41:32.952Z,1.00
2022-11-13T19:44:00.514Z,1.00
2022-11-13T19:46:28.614Z,1.00
2022-11-13T19:48:55.633Z,1.00
2022-11-13T19:51:24.822Z,1.00
2022-11-13T19:53:57.375Z,1.00
2022-11-13T19:56:25.300Z,1.00
2022-11-13T19:58:52.855Z,1.00
2022-11-13T20:01:28.444Z,1.00
2022-11-13T20:04:00.757Z,1.20
2022-11-13T20:06:29.544Z,3.20
2022-11-13T20:08:58.017Z,3.80
2022-11-13T20:11:25.005Z,4.40
2022-11-13T20:13:56.919Z,5.00
2022-11-13T20:16:24.695Z,4.70
2022-11-13T20:18:52.575Z,6.00
2022-11-13T20:21:27.717Z,7.60
2022-11-13T20:23:57.547Z,7.90
2022-11-13T20:26:25.582Z,8.60
2022-11-13T20:28:52.831Z,9.20
2022-11-13T20:31:22.878Z,9.30
2022-11-13T20:33:52.598Z,9.50
2022-11-13T20:36:20.259Z,9.20
2022-11-13T20:38:54.091Z,10.50
2022-11-13T20:41:21.680Z,13.10
2022-11-13T20:43:49.222Z,15.60
2022-11-13T20:46:17.730Z,17.60
2022-11-13T20:48:46.513Z,19.60
2022-11-13T20:51:15.366Z,21.70
2022-11-13T20:53:42.816Z,23.10
2022-11-13T20:56:10.308Z,23.70
2022-11-13T20:58:37.572Z,23.30
2022-11-13T21:01:07.397Z,23.90
2022-11-13T21:03:40.025Z,24.40
2022-11-13T21:06:15.931Z,25.80
2022-11-13T21:08:43.512Z,24.10
2022-11-13T21:11:15.650Z,22.70
2022-11-13T21:13:43.100Z,23.80
2022-11-13T21:16:10.290Z,23.20
2022-11-13T21:18:37.790Z,23.50
2022-11-13T21:21:11.977Z,24.70
2022-11-13T21:23:39.056Z,25.90
2022-11-13T21:26:07.910Z,25.10
2022-11-13T21:28:35.653Z,26.20
2022-11-13T21:31:05.115Z,30.70
2022-11-13T21:33:37.831Z,30.40
2022-11-13T21:36:11.675Z,33.40
2022-11-13T21:38:38.943Z,34.60
2022-11-13T21:41:23.601Z,34.70
2022-11-13T21:43:59.587Z,36.30
2022-11-13T21:46:32.546Z,36.80
2022-11-13T21:49:13.312Z,38.10
2022-11-13T21:51:42.321Z,39.60
2022-11-13T21:54:10.178Z,41.80
2022-11-13T21:56:38.994Z,44.20
2022-11-13T21:59:07.080Z,44.70
2022-11-13T22:01:38.457Z,46.40
2022-11-13T22:04:09.820Z,46.20
2022-11-13T22:06:36.902Z,47.30
2022-11-13T22:09:08.416Z,47.60
2022-11-13T22:11:37.389Z,48.90
2022-11-13T22:14:05.137Z,49.50
2022-11-13T22:16:37.785Z,51.10
2022-11-13T22:19:07.346Z,50.40
2022-11-13T22:21:36.271Z,49.60
2022-11-13T22:24:03.949Z,52.10
2022-11-13T22:26:31.853Z,52.30
2022-11-13T22:29:00.442Z,53.90
2022-11-13T22:31:32.219Z,54.30
2022-11-13T22:33:59.309Z,53.20
2022-11-13T22:36:28.452Z,54.30
2022-11-13T22:38:57.062Z,54.20
2022-11-13T22:41:27.803Z,56.10
2022-11-13T22:43:59.808Z,58.50
2022-11-13T22:46:30.057Z,59.10
2022-11-13T22:48:58.608Z,58.00
2022-11-13T22:51:35.254Z,58.20
2022-11-13T22:54:30.618Z,58.70
2022-11-13T22:57:02.273Z,59.40
2022-11-13T22:59:29.392Z,58.10
2022-11-13T23:01:56.593Z,57.80
2022-11-13T23:07:12.235Z,57.80
2022-11-13T23:09:39.434Z,60.20
2022-11-13T23:12:09.674Z,61.10
2022-11-13T23:14:55.242Z,62.90
2022-11-13T23:17:22.430Z,62.80
2022-11-13T23:19:50.010Z,63.50
2022-11-13T23:22:17.175Z,63.90
2022-11-13T23:24:44.232Z,66.40
2022-11-13T23:27:11.311Z,66.20
2022-11-13T23:29:38.339Z,66.90
2022-11-13T23:32:05.434Z,68.10
2022-11-13T23:34:58.265Z,68.80
2022-11-13T23:37:20.089Z,71.50
2022-11-13T23:39:47.343Z,71.90
2022-11-13T23:42:14.307Z,73.30
2022-11-13T23:44:41.402Z,73.40
2022-11-13T23:47:08.746Z,77.10
2022-11-13T23:49:35.854Z,77.50
2022-11-13T23:52:02.947Z,77.30
2022-11-13T23:54:30.203Z,74.30
2022-11-13T23:56:57.455Z,76.10
2022-11-13T23:59:24.516Z,75.40
